sensor_id;sensor_type;location;lat;lon;timestamp;P1;durP1;ratioP1;P2;durP2;ratioP2
11747;SDS011;5931;48.832;9.072;2023-04-24T00:01:15;1.10;;;1.00;;
11747;SDS011;5931;48.832;9.072;2023-04-24T00:03:42;2.97;;;1.33;;
11747;SDS011;5931;48.832;9.072;2023-04-24T00:06:07;1.33;;;1.20;;
11747;SDS011;5931;48.832;9.072;2023-04-24T00:08:36;1.30;;;0.97;;
11747;SDS011;5931;48.832;9.072;2023-04-24T00:11:01;2.10;;;1.13;;
11747;SDS011;5931;48.832;9.072;2023-04-24T00:13:28;4.47;;;1.40;;
11747;SDS011;5931;48.832;9.072;2023-04-24T00:18:30;1.77;;;1.30;;
11747;SDS011;5931;48.832;9.072;2023-04-24T00:20:56;1.30;;;1.10;;
11747;SDS011;5931;48.832;9.072;2023-04-24T00:23:21;1.33;;;1.07;;
11747;SDS011;5931;48.832;9.072;2023-04-24T00:25:47;1.30;;;1.00;;
11747;SDS011;5931;48.832;9.072;2023-04-24T00:28:12;1.37;;;1.20;;
11747;SDS011;5931;48.832;9.072;2023-04-24T00:30:39;3.53;;;1.13;;
11747;SDS011;5931;48.832;9.072;2023-04-24T00:33:05;4.00;;;1.23;;
11747;SDS011;5931;48.832;9.072;2023-04-24T00:35:31;1.10;;;1.00;;
11747;SDS011;5931;48.832;9.072;2023-04-24T00:37:56;1.30;;;1.10;;
11747;SDS011;5931;48.832;9.072;2023-04-24T00:40:22;1.20;;;1.10;;
11747;SDS011;5931;48.832;9.072;2023-04-24T00:42:48;1.50;;;1.40;;
11747;SDS011;5931;48.832;9.072;2023-04-24T00:45:13;2.80;;;1.00;;
11747;SDS011;5931;48.832;9.072;2023-04-24T00:47:40;1.07;;;0.90;;
11747;SDS011;5931;48.832;9.072;2023-04-24T00:50:07;1.17;;;1.07;;
11747;SDS011;5931;48.832;9.072;2023-04-24T00:52:33;2.30;;;1.33;;
11747;SDS011;5931;48.832;9.072;2023-04-24T00:54:59;2.07;;;1.10;;
11747;SDS011;5931;48.832;9.072;2023-04-24T00:57:25;1.20;;;0.90;;
11747;SDS011;5931;48.832;9.072;2023-04-24T00:59:52;2.40;;;1.13;;
11747;SDS011;5931;48.832;9.072;2023-04-24T01:02:18;1.90;;;1.03;;
11747;SDS011;5931;48.832;9.072;2023-04-24T01:04:45;8.30;;;1.60;;
11747;SDS011;5931;48.832;9.072;2023-04-24T01:07:11;1.10;;;1.00;;
11747;SDS011;5931;48.832;9.072;2023-04-24T01:09:40;2.87;;;1.43;;
11747;SDS011;5931;48.832;9.072;2023-04-24T01:12:09;1.30;;;1.00;;
11747;SDS011;5931;48.832;9.072;2023-04-24T01:14:36;5.10;;;1.40;;
11747;SDS011;5931;48.832;9.072;2023-04-24T01:17:02;1.50;;;1.20;;
11747;SDS011;5931;48.832;9.072;2023-04-24T01:19:28;1.30;;;1.00;;
11747;SDS011;5931;48.832;9.072;2023-04-24T01:21:53;1.10;;;0.90;;
11747;SDS011;5931;48.832;9.072;2023-04-24T01:24:23;2.03;;;1.20;;
11747;SDS011;5931;48.832;9.072;2023-04-24T01:26:48;1.53;;;1.00;;
11747;SDS011;5931;48.832;9.072;2023-04-24T01:29:14;1.40;;;0.90;;
11747;SDS011;5931;48.832;9.072;2023-04-24T01:31:42;1.80;;;1.20;;
11747;SDS011;5931;48.832;9.072;2023-04-24T01:34:08;1.57;;;1.17;;
11747;SDS011;5931;48.832;9.072;2023-04-24T01:36:34;1.40;;;1.00;;
11747;SDS011;5931;48.832;9.072;2023-04-24T01:39:01;1.10;;;0.93;;
11747;SDS011;5931;48.832;9.072;2023-04-24T01:41:28;1.60;;;1.00;;
11747;SDS011;5931;48.832;9.072;2023-04-24T01:43:55;1.10;;;0.90;;
11747;SDS011;5931;48.832;9.072;2023-04-24T01:46:23;1.20;;;1.00;;
11747;SDS011;5931;48.832;9.072;2023-04-24T01:48:49;1.00;;;0.80;;
11747;SDS011;5931;48.832;9.072;2023-04-24T01:51:18;1.50;;;1.30;;
11747;SDS011;5931;48.832;9.072;2023-04-24T01:53:44;1.20;;;0.90;;
11747;SDS011;5931;48.832;9.072;2023-04-24T01:56:10;1.93;;;1.13;;
11747;SDS011;5931;48.832;9.072;2023-04-24T01:58:36;1.33;;;1.20;;
11747;SDS011;5931;48.832;9.072;2023-04-24T02:01:02;3.03;;;1.10;;
11747;SDS011;5931;48.832;9.072;2023-04-24T02:03:27;1.00;;;0.90;;
11747;SDS011;5931;48.832;9.072;2023-04-24T02:05:54;3.73;;;1.10;;
11747;SDS011;5931;48.832;9.072;2023-04-24T02:08:20;2.80;;;1.20;;
11747;SDS011;5931;48.832;9.072;2023-04-24T02:10:48;1.90;;;1.30;;
11747;SDS011;5931;48.832;9.072;2023-04-24T02:13:14;1.30;;;0.97;;
11747;SDS011;5931;48.832;9.072;2023-04-24T02:15:39;1.27;;;1.00;;
11747;SDS011;5931;48.832;9.072;2023-04-24T02:18:05;1.60;;;1.07;;
11747;SDS011;5931;48.832;9.072;2023-04-24T02:20:32;1.83;;;1.00;;
11747;SDS011;5931;48.832;9.072;2023-04-24T02:22:59;1.30;;;1.10;;
11747;SDS011;5931;48.832;9.072;2023-04-24T02:25:25;1.40;;;1.20;;
11747;SDS011;5931;48.832;9.072;2023-04-24T02:27:53;1.27;;;0.90;;
11747;SDS011;5931;48.832;9.072;2023-04-24T02:30:19;1.50;;;1.10;;
11747;SDS011;5931;48.832;9.072;2023-04-24T02:32:45;1.47;;;0.93;;
11747;SDS011;5931;48.832;9.072;2023-04-24T02:35:10;1.93;;;1.10;;
11747;SDS011;5931;48.832;9.072;2023-04-24T02:37:36;1.20;;;1.07;;
11747;SDS011;5931;48.832;9.072;2023-04-24T02:40:02;2.93;;;1.30;;
11747;SDS011;5931;48.832;9.072;2023-04-24T02:42:27;1.50;;;1.00;;
11747;SDS011;5931;48.832;9.072;2023-04-24T02:44:53;2.97;;;1.50;;
11747;SDS011;5931;48.832;9.072;2023-04-24T02:47:19;1.63;;;1.23;;
11747;SDS011;5931;48.832;9.072;2023-04-24T02:49:45;1.23;;;1.13;;
11747;SDS011;5931;48.832;9.072;2023-04-24T02:52:10;2.23;;;1.30;;
11747;SDS011;5931;48.832;9.072;2023-04-24T02:54:36;1.10;;;1.00;;
11747;SDS011;5931;48.832;9.072;2023-04-24T02:57:01;1.20;;;1.10;;
11747;SDS011;5931;48.832;9.072;2023-04-24T02:59:28;4.30;;;1.20;;
11747;SDS011;5931;48.832;9.072;2023-04-24T03:01:54;1.50;;;1.33;;
11747;SDS011;5931;48.832;9.072;2023-04-24T03:04:19;1.30;;;1.20;;
11747;SDS011;5931;48.832;9.072;2023-04-24T03:06:45;1.10;;;0.90;;
11747;SDS011;5931;48.832;9.072;2023-04-24T03:09:12;4.90;;;1.37;;
11747;SDS011;5931;48.832;9.072;2023-04-24T03:11:37;2.60;;;1.20;;
11747;SDS011;5931;48.832;9.072;2023-04-24T03:14:03;2.60;;;1.30;;
11747;SDS011;5931;48.832;9.072;2023-04-24T03:16:29;3.10;;;1.50;;
11747;SDS011;5931;48.832;9.072;2023-04-24T03:18:54;2.23;;;1.27;;
11747;SDS011;5931;48.832;9.072;2023-04-24T03:21:22;1.20;;;1.10;;
11747;SDS011;5931;48.832;9.072;2023-04-24T03:23:48;1.30;;;1.20;;
11747;SDS011;5931;48.832;9.072;2023-04-24T03:26:13;1.70;;;1.10;;
11747;SDS011;5931;48.832;9.072;2023-04-24T03:28:50;1.37;;;1.10;;
11747;SDS011;5931;48.832;9.072;2023-04-24T03:31:16;1.50;;;1.30;;
11747;SDS011;5931;48.832;9.072;2023-04-24T03:33:42;1.43;;;1.20;;
11747;SDS011;5931;48.832;9.072;2023-04-24T03:36:07;1.70;;;1.30;;
11747;SDS011;5931;48.832;9.072;2023-04-24T03:38:37;1.30;;;1.00;;
11747;SDS011;5931;48.832;9.072;2023-04-24T03:41:18;1.20;;;1.00;;
11747;SDS011;5931;48.832;9.072;2023-04-24T03:43:50;1.70;;;1.27;;
11747;SDS011;5931;48.832;9.072;2023-04-24T03:46:15;1.30;;;1.00;;
11747;SDS011;5931;48.832;9.072;2023-04-24T03:48:47;1.30;;;1.10;;
11747;SDS011;5931;48.832;9.072;2023-04-24T03:51:16;3.40;;;1.30;;
11747;SDS011;5931;48.832;9.072;2023-04-24T03:53:44;1.13;;;1.00;;
11747;SDS011;5931;48.832;9.072;2023-04-24T03:56:13;7.23;;;1.37;;
11747;SDS011;5931;48.832;9.072;2023-04-24T03:58:40;1.30;;;1.00;;
11747;SDS011;5931;48.832;9.072;2023-04-24T04:01:05;2.53;;;1.00;;
11747;SDS011;5931;48.832;9.072;2023-04-24T04:03:46;1.20;;;1.00;;
11747;SDS011;5931;48.832;9.072;2023-04-24T04:06:16;1.83;;;1.37;;
11747;SDS011;5931;48.832;9.072;2023-04-24T04:08:41;1.60;;;1.10;;
11747;SDS011;5931;48.832;9.072;2023-04-24T04:11:07;1.40;;;1.10;;
11747;SDS011;5931;48.832;9.072;2023-04-24T04:13:33;1.30;;;1.03;;
11747;SDS011;5931;48.832;9.072;2023-04-24T04:15:59;1.50;;;1.10;;
11747;SDS011;5931;48.832;9.072;2023-04-24T04:18:24;2.03;;;1.10;;
11747;SDS011;5931;48.832;9.072;2023-04-24T04:20:50;1.50;;;1.10;;
11747;SDS011;5931;48.832;9.072;2023-04-24T04:23:16;1.77;;;1.10;;
11747;SDS011;5931;48.832;9.072;2023-04-24T04:26:02;1.60;;;1.13;;
11747;SDS011;5931;48.832;9.072;2023-04-24T04:28:40;1.73;;;1.63;;
11747;SDS011;5931;48.832;9.072;2023-04-24T04:31:06;1.77;;;1.43;;
11747;SDS011;5931;48.832;9.072;2023-04-24T04:33:33;1.37;;;1.27;;
11747;SDS011;5931;48.832;9.072;2023-04-24T04:36:05;2.90;;;1.63;;
11747;SDS011;5931;48.832;9.072;2023-04-24T04:38:34;2.30;;;1.60;;
11747;SDS011;5931;48.832;9.072;2023-04-24T04:41:10;2.30;;;1.70;;
11747;SDS011;5931;48.832;9.072;2023-04-24T04:43:36;3.27;;;1.40;;
11747;SDS011;5931;48.832;9.072;2023-04-24T04:46:04;3.20;;;1.93;;
11747;SDS011;5931;48.832;9.072;2023-04-24T04:48:39;1.83;;;1.53;;
11747;SDS011;5931;48.832;9.072;2023-04-24T04:51:06;1.80;;;1.43;;
11747;SDS011;5931;48.832;9.072;2023-04-24T04:53:32;1.80;;;1.67;;
11747;SDS011;5931;48.832;9.072;2023-04-24T04:55:57;1.97;;;1.60;;
11747;SDS011;5931;48.832;9.072;2023-04-24T04:58:29;1.73;;;1.53;;
11747;SDS011;5931;48.832;9.072;2023-04-24T05:00:57;1.60;;;1.50;;
11747;SDS011;5931;48.832;9.072;2023-04-24T05:03:28;1.30;;;1.20;;
11747;SDS011;5931;48.832;9.072;2023-04-24T05:05:59;1.97;;;1.57;;
11747;SDS011;5931;48.832;9.072;2023-04-24T05:08:26;1.70;;;1.40;;
11747;SDS011;5931;48.832;9.072;2023-04-24T05:10:52;2.80;;;1.50;;
11747;SDS011;5931;48.832;9.072;2023-04-24T05:13:17;2.30;;;1.43;;
11747;SDS011;5931;48.832;9.072;2023-04-24T05:15:43;1.80;;;1.43;;
11747;SDS011;5931;48.832;9.072;2023-04-24T05:18:09;1.50;;;1.20;;
11747;SDS011;5931;48.832;9.072;2023-04-24T05:20:35;2.77;;;1.40;;
11747;SDS011;5931;48.832;9.072;2023-04-24T05:23:01;1.30;;;1.20;;
11747;SDS011;5931;48.832;9.072;2023-04-24T05:25:28;1.50;;;1.30;;
11747;SDS011;5931;48.832;9.072;2023-04-24T05:28:03;1.40;;;1.30;;
11747;SDS011;5931;48.832;9.072;2023-04-24T05:30:29;3.40;;;1.40;;
11747;SDS011;5931;48.832;9.072;2023-04-24T05:32:54;2.30;;;1.30;;
11747;SDS011;5931;48.832;9.072;2023-04-24T05:35:20;1.67;;;1.30;;
11747;SDS011;5931;48.832;9.072;2023-04-24T05:37:46;2.00;;;1.60;;
11747;SDS011;5931;48.832;9.072;2023-04-24T05:40:12;3.57;;;1.37;;
11747;SDS011;5931;48.832;9.072;2023-04-24T05:42:37;1.60;;;1.40;;
11747;SDS011;5931;48.832;9.072;2023-04-24T05:45:03;3.63;;;1.53;;
11747;SDS011;5931;48.832;9.072;2023-04-24T05:47:29;2.57;;;1.60;;
11747;SDS011;5931;48.832;9.072;2023-04-24T05:49:56;3.73;;;1.90;;
11747;SDS011;5931;48.832;9.072;2023-04-24T05:52:22;3.10;;;2.57;;
11747;SDS011;5931;48.832;9.072;2023-04-24T05:54:48;2.70;;;2.00;;
11747;SDS011;5931;48.832;9.072;2023-04-24T05:57:19;3.00;;;2.27;;
11747;SDS011;5931;48.832;9.072;2023-04-24T05:59:54;2.90;;;2.50;;
11747;SDS011;5931;48.832;9.072;2023-04-24T06:02:20;3.07;;;2.40;;
11747;SDS011;5931;48.832;9.072;2023-04-24T06:04:47;2.07;;;1.47;;
11747;SDS011;5931;48.832;9.072;2023-04-24T06:07:13;2.43;;;2.00;;
11747;SDS011;5931;48.832;9.072;2023-04-24T06:09:41;3.00;;;1.97;;
11747;SDS011;5931;48.832;9.072;2023-04-24T06:12:06;3.20;;;2.00;;
11747;SDS011;5931;48.832;9.072;2023-04-24T06:14:46;2.33;;;1.70;;
11747;SDS011;5931;48.832;9.072;2023-04-24T06:17:22;3.27;;;2.00;;
11747;SDS011;5931;48.832;9.072;2023-04-24T06:19:48;2.53;;;1.80;;
11747;SDS011;5931;48.832;9.072;2023-04-24T06:22:14;3.20;;;1.90;;
11747;SDS011;5931;48.832;9.072;2023-04-24T06:24:40;4.30;;;1.77;;
11747;SDS011;5931;48.832;9.072;2023-04-24T06:27:06;1.50;;;1.40;;
11747;SDS011;5931;48.832;9.072;2023-04-24T06:29:33;3.90;;;1.97;;
11747;SDS011;5931;48.832;9.072;2023-04-24T06:31:59;2.27;;;1.57;;
11747;SDS011;5931;48.832;9.072;2023-04-24T06:34:25;4.50;;;1.57;;
11747;SDS011;5931;48.832;9.072;2023-04-24T06:36:50;2.07;;;1.73;;
11747;SDS011;5931;48.832;9.072;2023-04-24T06:39:16;1.70;;;1.40;;
11747;SDS011;5931;48.832;9.072;2023-04-24T06:41:42;2.33;;;1.30;;
11747;SDS011;5931;48.832;9.072;2023-04-24T06:44:16;1.90;;;1.70;;
11747;SDS011;5931;48.832;9.072;2023-04-24T06:46:41;2.67;;;2.27;;
11747;SDS011;5931;48.832;9.072;2023-04-24T06:49:07;6.77;;;2.60;;
11747;SDS011;5931;48.832;9.072;2023-04-24T06:51:33;4.60;;;2.07;;
11747;SDS011;5931;48.832;9.072;2023-04-24T06:53:58;2.40;;;1.57;;
11747;SDS011;5931;48.832;9.072;2023-04-24T06:56:25;2.13;;;1.67;;
11747;SDS011;5931;48.832;9.072;2023-04-24T06:58:51;2.00;;;1.50;;
11747;SDS011;5931;48.832;9.072;2023-04-24T07:01:17;2.20;;;1.50;;
11747;SDS011;5931;48.832;9.072;2023-04-24T07:03:43;3.13;;;2.20;;
11747;SDS011;5931;48.832;9.072;2023-04-24T07:06:09;3.27;;;1.50;;
11747;SDS011;5931;48.832;9.072;2023-04-24T07:08:37;1.97;;;1.33;;
11747;SDS011;5931;48.832;9.072;2023-04-24T07:11:03;2.03;;;1.73;;
11747;SDS011;5931;48.832;9.072;2023-04-24T07:13:29;1.97;;;1.60;;
11747;SDS011;5931;48.832;9.072;2023-04-24T07:15:55;2.40;;;1.80;;
11747;SDS011;5931;48.832;9.072;2023-04-24T07:18:21;2.00;;;1.80;;
11747;SDS011;5931;48.832;9.072;2023-04-24T07:20:47;1.60;;;1.50;;
11747;SDS011;5931;48.832;9.072;2023-04-24T07:23:15;1.93;;;1.73;;
11747;SDS011;5931;48.832;9.072;2023-04-24T07:25:41;1.60;;;1.50;;
11747;SDS011;5931;48.832;9.072;2023-04-24T07:28:07;2.60;;;1.40;;
11747;SDS011;5931;48.832;9.072;2023-04-24T07:30:33;2.03;;;1.83;;
11747;SDS011;5931;48.832;9.072;2023-04-24T07:32:58;1.70;;;1.50;;
11747;SDS011;5931;48.832;9.072;2023-04-24T07:35:25;3.57;;;1.30;;
11747;SDS011;5931;48.832;9.072;2023-04-24T07:37:54;1.87;;;1.37;;
11747;SDS011;5931;48.832;9.072;2023-04-24T07:40:20;3.93;;;1.30;;
11747;SDS011;5931;48.832;9.072;2023-04-24T07:42:46;2.27;;;1.70;;
11747;SDS011;5931;48.832;9.072;2023-04-24T07:45:16;1.80;;;1.43;;
11747;SDS011;5931;48.832;9.072;2023-04-24T07:47:41;2.53;;;1.63;;
11747;SDS011;5931;48.832;9.072;2023-04-24T07:50:09;1.77;;;1.57;;
11747;SDS011;5931;48.832;9.072;2023-04-24T07:52:35;1.80;;;1.30;;
11747;SDS011;5931;48.832;9.072;2023-04-24T07:55:00;1.57;;;1.20;;
11747;SDS011;5931;48.832;9.072;2023-04-24T07:57:27;2.37;;;1.60;;
11747;SDS011;5931;48.832;9.072;2023-04-24T07:59:53;1.80;;;1.50;;
11747;SDS011;5931;48.832;9.072;2023-04-24T08:02:20;2.47;;;1.30;;
11747;SDS011;5931;48.832;9.072;2023-04-24T08:04:51;1.47;;;1.17;;
11747;SDS011;5931;48.832;9.072;2023-04-24T08:07:20;7.53;;;1.63;;
11747;SDS011;5931;48.832;9.072;2023-04-24T08:09:45;1.40;;;1.30;;
11747;SDS011;5931;48.832;9.072;2023-04-24T08:12:11;1.80;;;1.60;;
11747;SDS011;5931;48.832;9.072;2023-04-24T08:14:37;2.07;;;1.47;;
11747;SDS011;5931;48.832;9.072;2023-04-24T08:17:03;1.80;;;1.50;;
11747;SDS011;5931;48.832;9.072;2023-04-24T08:19:28;1.90;;;1.70;;
11747;SDS011;5931;48.832;9.072;2023-04-24T08:21:54;1.87;;;1.60;;
11747;SDS011;5931;48.832;9.072;2023-04-24T08:24:20;2.67;;;1.63;;
11747;SDS011;5931;48.832;9.072;2023-04-24T08:26:48;1.73;;;1.53;;
11747;SDS011;5931;48.832;9.072;2023-04-24T08:29:19;1.57;;;1.40;;
11747;SDS011;5931;48.832;9.072;2023-04-24T08:31:44;3.13;;;1.90;;
11747;SDS011;5931;48.832;9.072;2023-04-24T08:34:10;2.77;;;1.70;;
11747;SDS011;5931;48.832;9.072;2023-04-24T08:36:36;1.93;;;1.33;;
11747;SDS011;5931;48.832;9.072;2023-04-24T08:39:02;1.73;;;1.60;;
11747;SDS011;5931;48.832;9.072;2023-04-24T08:41:28;2.47;;;1.83;;
11747;SDS011;5931;48.832;9.072;2023-04-24T08:43:55;1.90;;;1.63;;
11747;SDS011;5931;48.832;9.072;2023-04-24T08:46:23;2.23;;;1.43;;
11747;SDS011;5931;48.832;9.072;2023-04-24T08:48:50;2.00;;;1.80;;
11747;SDS011;5931;48.832;9.072;2023-04-24T08:51:17;2.20;;;1.90;;
11747;SDS011;5931;48.832;9.072;2023-04-24T08:53:43;1.60;;;1.37;;
11747;SDS011;5931;48.832;9.072;2023-04-24T08:56:10;1.90;;;1.50;;
11747;SDS011;5931;48.832;9.072;2023-04-24T08:58:36;1.70;;;1.60;;
11747;SDS011;5931;48.832;9.072;2023-04-24T09:01:03;2.83;;;1.50;;
11747;SDS011;5931;48.832;9.072;2023-04-24T09:03:30;1.53;;;1.40;;
11747;SDS011;5931;48.832;9.072;2023-04-24T09:05:56;3.10;;;1.43;;
11747;SDS011;5931;48.832;9.072;2023-04-24T09:08:24;1.70;;;1.40;;
11747;SDS011;5931;48.832;9.072;2023-04-24T09:10:51;2.00;;;1.43;;
11747;SDS011;5931;48.832;9.072;2023-04-24T09:13:17;2.30;;;1.70;;
11747;SDS011;5931;48.832;9.072;2023-04-24T09:15:45;1.53;;;1.33;;
11747;SDS011;5931;48.832;9.072;2023-04-24T09:18:11;3.20;;;1.63;;
11747;SDS011;5931;48.832;9.072;2023-04-24T09:23:28;2.37;;;1.80;;
11747;SDS011;5931;48.832;9.072;2023-04-24T09:25:58;1.63;;;1.53;;
11747;SDS011;5931;48.832;9.072;2023-04-24T09:28:32;2.07;;;1.40;;
11747;SDS011;5931;48.832;9.072;2023-04-24T09:31:08;1.50;;;1.40;;
11747;SDS011;5931;48.832;9.072;2023-04-24T09:33:36;2.83;;;1.77;;
11747;SDS011;5931;48.832;9.072;2023-04-24T09:36:02;2.73;;;1.30;;
11747;SDS011;5931;48.832;9.072;2023-04-24T09:38:35;1.83;;;1.63;;
11747;SDS011;5931;48.832;9.072;2023-04-24T09:41:02;1.80;;;1.43;;
11747;SDS011;5931;48.832;9.072;2023-04-24T09:43:31;1.87;;;1.40;;
11747;SDS011;5931;48.832;9.072;2023-04-24T09:45:57;1.30;;;1.10;;
11747;SDS011;5931;48.832;9.072;2023-04-24T09:48:30;2.07;;;1.87;;
11747;SDS011;5931;48.832;9.072;2023-04-24T09:51:03;2.60;;;1.37;;
11747;SDS011;5931;48.832;9.072;2023-04-24T09:53:32;2.10;;;1.70;;
11747;SDS011;5931;48.832;9.072;2023-04-24T09:56:07;2.37;;;1.70;;
11747;SDS011;5931;48.832;9.072;2023-04-24T09:58:35;1.23;;;1.13;;
11747;SDS011;5931;48.832;9.072;2023-04-24T10:01:01;1.40;;;1.30;;
11747;SDS011;5931;48.832;9.072;2023-04-24T10:03:31;4.13;;;1.63;;
11747;SDS011;5931;48.832;9.072;2023-04-24T10:06:03;1.20;;;1.10;;
11747;SDS011;5931;48.832;9.072;2023-04-24T10:08:34;2.00;;;1.80;;
11747;SDS011;5931;48.832;9.072;2023-04-24T10:11:01;1.57;;;1.30;;
11747;SDS011;5931;48.832;9.072;2023-04-24T10:13:27;1.67;;;1.33;;
11747;SDS011;5931;48.832;9.072;2023-04-24T10:15:53;1.20;;;1.00;;
11747;SDS011;5931;48.832;9.072;2023-04-24T10:18:21;1.77;;;1.30;;
11747;SDS011;5931;48.832;9.072;2023-04-24T10:20:47;1.83;;;1.70;;
11747;SDS011;5931;48.832;9.072;2023-04-24T10:23:12;1.37;;;1.27;;
11747;SDS011;5931;48.832;9.072;2023-04-24T10:25:38;1.43;;;1.20;;
11747;SDS011;5931;48.832;9.072;2023-04-24T10:28:04;1.60;;;1.13;;
11747;SDS011;5931;48.832;9.072;2023-04-24T10:30:31;1.70;;;1.60;;
11747;SDS011;5931;48.832;9.072;2023-04-24T10:33:02;1.53;;;1.33;;
11747;SDS011;5931;48.832;9.072;2023-04-24T10:35:34;2.60;;;1.70;;
11747;SDS011;5931;48.832;9.072;2023-04-24T10:38:05;1.80;;;1.60;;
11747;SDS011;5931;48.832;9.072;2023-04-24T10:40:34;2.17;;;1.37;;
11747;SDS011;5931;48.832;9.072;2023-04-24T10:43:07;1.50;;;1.30;;
11747;SDS011;5931;48.832;9.072;2023-04-24T10:45:36;1.93;;;1.37;;
11747;SDS011;5931;48.832;9.072;2023-04-24T10:48:06;1.60;;;1.33;;
11747;SDS011;5931;48.832;9.072;2023-04-24T10:53:18;2.00;;;1.37;;
11747;SDS011;5931;48.832;9.072;2023-04-24T10:55:52;1.83;;;1.53;;
11747;SDS011;5931;48.832;9.072;2023-04-24T11:03:50;1.60;;;1.50;;
11747;SDS011;5931;48.832;9.072;2023-04-24T11:06:28;2.47;;;1.60;;
11747;SDS011;5931;48.832;9.072;2023-04-24T11:09:01;1.47;;;1.30;;
11747;SDS011;5931;48.832;9.072;2023-04-24T11:11:31;2.80;;;1.60;;
11747;SDS011;5931;48.832;9.072;2023-04-24T11:18:51;1.83;;;1.70;;
11747;SDS011;5931;48.832;9.072;2023-04-24T11:21:24;2.73;;;1.77;;
11747;SDS011;5931;48.832;9.072;2023-04-24T11:23:51;3.33;;;1.80;;
11747;SDS011;5931;48.832;9.072;2023-04-24T11:26:26;2.30;;;1.70;;
11747;SDS011;5931;48.832;9.072;2023-04-24T11:29:05;2.33;;;1.60;;
11747;SDS011;5931;48.832;9.072;2023-04-24T11:31:36;2.00;;;1.80;;
11747;SDS011;5931;48.832;9.072;2023-04-24T11:34:13;1.77;;;1.40;;
11747;SDS011;5931;48.832;9.072;2023-04-24T11:36:40;1.93;;;1.30;;
11747;SDS011;5931;48.832;9.072;2023-04-24T11:39:09;6.27;;;1.60;;
11747;SDS011;5931;48.832;9.072;2023-04-24T11:41:36;2.00;;;1.43;;
11747;SDS011;5931;48.832;9.072;2023-04-24T11:44:02;1.97;;;1.60;;
11747;SDS011;5931;48.832;9.072;2023-04-24T11:46:30;1.47;;;1.37;;
11747;SDS011;5931;48.832;9.072;2023-04-24T11:48:56;2.50;;;1.23;;
11747;SDS011;5931;48.832;9.072;2023-04-24T11:51:23;3.20;;;1.60;;
11747;SDS011;5931;48.832;9.072;2023-04-24T11:53:53;2.43;;;1.60;;
11747;SDS011;5931;48.832;9.072;2023-04-24T11:56:23;1.70;;;1.33;;
11747;SDS011;5931;48.832;9.072;2023-04-24T11:58:51;2.27;;;1.50;;
11747;SDS011;5931;48.832;9.072;2023-04-24T12:01:19;2.17;;;1.80;;
11747;SDS011;5931;48.832;9.072;2023-04-24T12:03:58;2.00;;;1.50;;
11747;SDS011;5931;48.832;9.072;2023-04-24T12:06:24;1.83;;;1.30;;
11747;SDS011;5931;48.832;9.072;2023-04-24T12:08:52;2.07;;;1.40;;
11747;SDS011;5931;48.832;9.072;2023-04-24T12:11:20;2.80;;;1.77;;
11747;SDS011;5931;48.832;9.072;2023-04-24T12:13:45;1.90;;;1.67;;
11747;SDS011;5931;48.832;9.072;2023-04-24T12:16:11;2.57;;;1.63;;
11747;SDS011;5931;48.832;9.072;2023-04-24T12:18:44;1.63;;;1.40;;
11747;SDS011;5931;48.832;9.072;2023-04-24T12:21:20;1.63;;;1.50;;
11747;SDS011;5931;48.832;9.072;2023-04-24T12:23:47;1.80;;;1.60;;
11747;SDS011;5931;48.832;9.072;2023-04-24T12:26:19;1.83;;;1.53;;
11747;SDS011;5931;48.832;9.072;2023-04-24T12:28:48;2.67;;;1.40;;
11747;SDS011;5931;48.832;9.072;2023-04-24T12:31:17;1.83;;;1.60;;
11747;SDS011;5931;48.832;9.072;2023-04-24T12:33:45;2.27;;;1.50;;
11747;SDS011;5931;48.832;9.072;2023-04-24T12:36:11;1.50;;;1.40;;
11747;SDS011;5931;48.832;9.072;2023-04-24T12:38:38;1.60;;;1.50;;
11747;SDS011;5931;48.832;9.072;2023-04-24T12:41:09;2.03;;;1.53;;
11747;SDS011;5931;48.832;9.072;2023-04-24T12:43:37;1.90;;;1.70;;
11747;SDS011;5931;48.832;9.072;2023-04-24T12:46:03;1.77;;;1.50;;
11747;SDS011;5931;48.832;9.072;2023-04-24T12:48:29;3.10;;;1.70;;
11747;SDS011;5931;48.832;9.072;2023-04-24T12:50:58;2.40;;;1.63;;
11747;SDS011;5931;48.832;9.072;2023-04-24T12:53:27;1.57;;;1.30;;
11747;SDS011;5931;48.832;9.072;2023-04-24T12:55:55;5.67;;;2.63;;
11747;SDS011;5931;48.832;9.072;2023-04-24T12:58:21;2.20;;;1.80;;
11747;SDS011;5931;48.832;9.072;2023-04-24T13:00:47;1.73;;;1.63;;
11747;SDS011;5931;48.832;9.072;2023-04-24T13:03:13;1.93;;;1.60;;
11747;SDS011;5931;48.832;9.072;2023-04-24T13:05:39;2.50;;;2.03;;
11747;SDS011;5931;48.832;9.072;2023-04-24T13:08:05;2.80;;;2.17;;
11747;SDS011;5931;48.832;9.072;2023-04-24T13:10:31;2.90;;;1.80;;
11747;SDS011;5931;48.832;9.072;2023-04-24T13:12:57;2.67;;;2.03;;
11747;SDS011;5931;48.832;9.072;2023-04-24T13:15:22;2.13;;;1.93;;
11747;SDS011;5931;48.832;9.072;2023-04-24T13:17:48;2.63;;;2.10;;
11747;SDS011;5931;48.832;9.072;2023-04-24T13:20:14;2.40;;;1.93;;
11747;SDS011;5931;48.832;9.072;2023-04-24T13:22:40;3.33;;;2.07;;
11747;SDS011;5931;48.832;9.072;2023-04-24T13:25:06;3.03;;;1.80;;
11747;SDS011;5931;48.832;9.072;2023-04-24T13:27:32;2.17;;;1.80;;
11747;SDS011;5931;48.832;9.072;2023-04-24T13:29:58;2.50;;;1.90;;
11747;SDS011;5931;48.832;9.072;2023-04-24T13:32:24;2.40;;;1.70;;
11747;SDS011;5931;48.832;9.072;2023-04-24T13:34:50;1.90;;;1.70;;
11747;SDS011;5931;48.832;9.072;2023-04-24T13:37:16;2.20;;;1.90;;
11747;SDS011;5931;48.832;9.072;2023-04-24T13:39:41;3.90;;;1.90;;
11747;SDS011;5931;48.832;9.072;2023-04-24T13:42:07;1.60;;;1.30;;
11747;SDS011;5931;48.832;9.072;2023-04-24T13:44:33;1.77;;;1.63;;
11747;SDS011;5931;48.832;9.072;2023-04-24T13:46:59;1.70;;;1.47;;
11747;SDS011;5931;48.832;9.072;2023-04-24T13:49:24;1.63;;;1.53;;
11747;SDS011;5931;48.832;9.072;2023-04-24T13:51:51;1.50;;;1.40;;
11747;SDS011;5931;48.832;9.072;2023-04-24T13:54:18;1.90;;;1.60;;
11747;SDS011;5931;48.832;9.072;2023-04-24T13:56:43;2.60;;;1.83;;
11747;SDS011;5931;48.832;9.072;2023-04-24T13:59:09;3.20;;;1.87;;
11747;SDS011;5931;48.832;9.072;2023-04-24T14:01:37;1.50;;;1.40;;
11747;SDS011;5931;48.832;9.072;2023-04-24T14:04:02;2.20;;;1.17;;
11747;SDS011;5931;48.832;9.072;2023-04-24T14:06:28;2.10;;;1.50;;
11747;SDS011;5931;48.832;9.072;2023-04-24T14:08:54;1.60;;;1.30;;
11747;SDS011;5931;48.832;9.072;2023-04-24T14:11:19;1.70;;;1.60;;
11747;SDS011;5931;48.832;9.072;2023-04-24T14:13:45;2.07;;;1.40;;
11747;SDS011;5931;48.832;9.072;2023-04-24T14:16:11;2.23;;;1.60;;
11747;SDS011;5931;48.832;9.072;2023-04-24T14:18:37;1.60;;;1.50;;
11747;SDS011;5931;48.832;9.072;2023-04-24T14:21:03;4.63;;;2.23;;
11747;SDS011;5931;48.832;9.072;2023-04-24T14:23:29;1.50;;;1.30;;
11747;SDS011;5931;48.832;9.072;2023-04-24T14:25:55;2.10;;;1.80;;
11747;SDS011;5931;48.832;9.072;2023-04-24T14:28:22;2.30;;;1.63;;
11747;SDS011;5931;48.832;9.072;2023-04-24T14:30:48;1.60;;;1.27;;
11747;SDS011;5931;48.832;9.072;2023-04-24T14:33:13;2.30;;;1.80;;
11747;SDS011;5931;48.832;9.072;2023-04-24T14:35:40;6.80;;;1.60;;
11747;SDS011;5931;48.832;9.072;2023-04-24T14:38:07;2.63;;;1.87;;
11747;SDS011;5931;48.832;9.072;2023-04-24T14:40:33;1.97;;;1.50;;
11747;SDS011;5931;48.832;9.072;2023-04-24T14:42:59;2.80;;;1.90;;
11747;SDS011;5931;48.832;9.072;2023-04-24T14:45:25;2.03;;;1.60;;
11747;SDS011;5931;48.832;9.072;2023-04-24T14:47:52;1.80;;;1.60;;
11747;SDS011;5931;48.832;9.072;2023-04-24T14:50:18;1.90;;;1.50;;
11747;SDS011;5931;48.832;9.072;2023-04-24T14:52:44;1.60;;;1.50;;
11747;SDS011;5931;48.832;9.072;2023-04-24T14:55:10;3.47;;;1.80;;
11747;SDS011;5931;48.832;9.072;2023-04-24T14:57:35;3.00;;;1.77;;
11747;SDS011;5931;48.832;9.072;2023-04-24T15:00:02;2.27;;;1.60;;
11747;SDS011;5931;48.832;9.072;2023-04-24T15:02:33;1.60;;;1.47;;
11747;SDS011;5931;48.832;9.072;2023-04-24T15:04:59;1.80;;;1.40;;
11747;SDS011;5931;48.832;9.072;2023-04-24T15:07:25;1.83;;;1.30;;
11747;SDS011;5931;48.832;9.072;2023-04-24T15:09:50;4.20;;;1.80;;
11747;SDS011;5931;48.832;9.072;2023-04-24T15:12:16;2.13;;;1.90;;
11747;SDS011;5931;48.832;9.072;2023-04-24T15:14:42;3.13;;;1.70;;
11747;SDS011;5931;48.832;9.072;2023-04-24T15:17:07;2.37;;;1.80;;
11747;SDS011;5931;48.832;9.072;2023-04-24T15:19:33;4.57;;;1.90;;